Weather observations for the past three days for
San Andreas Calaveras County Airport
Imperial (Metric)
Date Time (pdt) Wind (mph) Vis. (mi.) Weather Sky Cond. Temperature (ºF) Relative Humidity Wind Chill (°F) Heat Index (°F) Pressure Precipitation (in)
Air Dwpt 6 hour altimeter (in) sea level (mb) 1 hr 3 hr 6 hr
Max. Min.
04 17:55 Calm 10.00 Overcast BKN048 OVC050 53.1 45.9 77% 29.98 0.0
04 17:35 Calm 10.00 Overcast SCT037 BKN050 OVC055 53.2 45.7 76% 29.98 0.0
04 17:15 Calm 10.00 Overcast SCT037 OVC050 53.6 46.4 77% 29.98 0.0
04 16:55 Calm 10.00 Mostly Cloudy SCT048 BKN060 53.1 46.4 54.3 50.9 78% 29.98 0.0
04 16:35 Calm 10.00 Mostly Cloudy BKN048 53.2 46.6 78% 29.98 0.0
04 16:15 Calm 10.00 Overcast OVC050 53.2 45.7 76% 29.98 0.0
04 15:55 N 3 10.00 Overcast OVC048 52.9 46.9 80% 29.99 0.0
04 15:35 NE 3 10.00 Overcast OVC048 52.7 49.3 88% 29.99 0.0
04 15:15 Calm 10.00 Overcast OVC050 52.9 48.4 85% 29.99 0.0
04 14:55 N 3 7.00 Overcast OVC050 53.2 47.8 82% 30 0.0
04 14:35 N 3 10.00 Overcast OVC048 53.6 47.3 79% 30 0.0
04 14:15 NW 5 10.00 Overcast OVC048 53.6 47.3 79% 30 0.0
04 13:55 NW 3 10.00 Overcast OVC046 53.6 47.1 79% 30 0.0
04 13:35 Calm 10.00 Overcast OVC044 53.6 46.6 77% 30 0.0
04 13:15 NW 5 10.00 Overcast OVC044 53.8 46.6 77% 29.99 0.0
04 13:00 NW 3 10.00 Mostly Cloudy BKN044 54.1 46.9 77% 29.99 0.0
04 12:35 Calm 10.00 Overcast OVC044 53.2 47.5 81% 29.99 0.0
04 12:15 Calm 10.00 Overcast OVC044 52.2 48.6 88% 29.99 0.0
04 11:55 Calm 10.00 Mostly Cloudy BKN042 52.2 48 86% 29.99 0.0
04 11:35 Calm 10.00 Mostly Cloudy BKN040 BKN049 51.3 48.4 90% 30 0.0
04 11:15 N 3 10.00 Partly Cloudy SCT034 SCT039 SCT046 51.4 46.6 84% 30 0.0
04 10:55 Calm 10.00 Mostly Cloudy SCT004 BKN033 BKN043 50.7 49.3 50.9 49.1 95% 29.99 0.0
04 10:35 Calm 4.00 Fog/Mist SCT004 BKN033 OVC041 49.8 48.9 97% 29.99 0.0
04 10:15 SE 3 3.00 Fog/Mist SCT002 BKN035 OVC045 49.6 49.6 100% 29.99 0.0
04 09:55 SW 3 3.00 Fog/Mist SCT002 OVC035 49.5 49.5 100% 29.99 0.0
04 09:35 S 3 2.00 Fog/Mist BKN002 BKN006 OVC033 49.8 49.8 100% 29.99 0.0
04 09:15 Calm 2.50 Fog/Mist SCT032 SCT047 OVC050 49.3 49.3 100% 29.99 0.0
04 08:55 Calm 1.75 Fog/Mist OVC050 49.3 49.3 100% 29.98 0.0
04 08:35 Calm 2.50 Fog/Mist SCT034 OVC050 49.3 49.3 100% 29.98 0.0
04 08:15 Calm 4.00 Fog/Mist SCT034 BKN050 49.1 49.1 100% 29.98 0.0
04 07:55 Calm 10.00 Fair CLR 49.5 49.5 100% 29.98 0.0
04 07:35 Calm 10.00 Mostly Cloudy SCT018 BKN035 49.8 49.8 100% 29.98 0.0
04 07:15 Calm 2.50 Fog/Mist SCT018 OVC035 49.3 49.3 100% 29.98 0.0
04 06:55 Calm 10.00 Overcast OVC035 49.6 48.6 96% 29.97 0.0
04 06:35 NW 5 10.00 Overcast OVC035 50 47.3 91% 49 29.97 0.0
04 06:15 N 5 10.00 Overcast OVC035 50.2 46.6 88% 29.96 0.0
04 05:55 NW 6 10.00 Overcast OVC033 50.4 46 85% 29.96 0.0
04 05:35 NW 5 10.00 Overcast OVC033 50.5 45.5 83% 29.96 0.0
04 05:15 NW 5 10.00 Overcast OVC033 50.5 45.5 83% 29.96 0.0
04 04:55 NW 3 10.00 Overcast OVC031 50.9 45.5 54 50.9 82% 29.96 0.0
04 04:35 NW 7 10.00 Overcast OVC031 50.9 45.3 81% 29.96 0.0
04 04:15 NW 7 10.00 Overcast OVC029 50.9 45.1 81% 29.96 0.0
04 03:55 NW 7 10.00 Overcast OVC029 51.1 45 80% 29.95 0.0
04 03:35 N 9 10.00 Overcast OVC031 50.9 45 80% 29.95 0.0
04 03:15 N 7 10.00 Overcast OVC029 51.1 45.1 80% 29.95 0.0
04 02:55 N 6 10.00 Overcast OVC029 51.3 45.1 80% 29.95 0.0
04 02:35 N 6 10.00 Overcast OVC029 51.1 45 80% 29.96 0.0
04 02:15 N 7 10.00 Overcast OVC029 51.4 45 79% 29.96 0.0
04 01:55 N 7 10.00 Overcast BKN026 OVC031 51.8 45 78% 29.95 0.0
04 01:35 NW 12 10.00 Overcast OVC026 52 45.5 79% 29.96 0.0
04 01:20 N 10 G 17 10.00 Overcast OVC028 52.2 45.5 78% 29.96 0.0
04 00:55 NW 15 G 21 10.00 Overcast OVC028 52.3 45.5 78% 29.95 0.0
04 00:35 NW 13 10.00 Overcast OVC028 52.7 45.7 77% 29.95 0.0
04 00:15 NW 12 10.00 Partly Cloudy SCT026 52.7 45.7 77% 29.95 0.0
03 23:55 NW 13 10.00 Fair CLR 52.9 46 78% 29.94 0.0
03 23:35 NW 15 10.00 Fair CLR 53.1 45.5 76% 29.94 0.0
03 23:15 NW 14 10.00 Fair CLR 53.6 45.5 74% 29.94 0.0
03 22:55 NW 14 10.00 Fair CLR 53.8 45.3 66.6 53.8 73% 29.94 0.0
03 22:35 NW 13 10.00 Fair CLR 54.5 44.8 70% 29.94 0.0
03 21:55 N 10 10.00 Fair CLR 54.7 44.8 69% 29.94 0.0
03 21:35 NW 14 10.00 Partly Cloudy SCT049 55.6 44.8 67% 29.93 0.0
03 21:15 NW 15 10.00 Overcast OVC049 56.8 45.5 66% 29.92 0.0
03 20:55 NW 14 G 18 10.00 Overcast OVC049 57.9 45.9 64% 29.92 0.0
03 20:35 NW 13 10.00 Overcast OVC047 58.5 46.6 65% 29.91 0.0
03 20:15 NW 13 G 16 10.00 Overcast OVC045 59.2 47.3 65% 29.9 0.0
03 19:55 NW 13 10.00 Overcast OVC043 59.7 47.1 63% 29.89 0.0
03 19:35 NW 13 G 18 10.00 Overcast OVC043 60.1 47.5 63% 29.89 0.0
03 19:15 N 7 10.00 Mostly Cloudy BKN041 61 48.6 64% 29.89 0.0
03 18:55 N 9 10.00 Partly Cloudy SCT041 61.7 48.2 61% 29.88 0.0
03 18:35 NW 9 10.00 Mostly Cloudy BKN041 62.4 48.4 60% 29.87 0.0
03 18:15 NW 12 10.00 Partly Cloudy SCT041 62.8 48.2 59% 29.88 0.0
03 17:55 NW 13 G 18 10.00 Mostly Cloudy BKN037 64.4 48.4 56% 29.87 0.0
03 17:35 NW 15 10.00 Mostly Cloudy BKN037 65.3 48.7 55% 29.88 0.0
03 17:15 NW 15 G 18 10.00 Fair CLR 66.2 48.6 53% 29.87 0.0
03 16:55 NW 15 10.00 Fair CLR 66.6 48.6 67.3 57 53% 29.87 0.0
03 16:35 NW 12 G 16 10.00 Fair CLR 66.9 48.7 52% 29.87 0.0
03 16:15 W 9 10.00 Fair CLR 67.1 49.1 53% 29.87 0.0
03 15:55 NW 8 10.00 Fair CLR 65.5 48.4 54% 29.87 0.0
03 15:35 NW 7 10.00 Fair CLR 65.8 48.2 53% 29.88 0.0
03 15:15 N 8 10.00 Fair CLR 65.8 48 53% 29.89 0.0
03 14:55 N 9 10.00 Fair CLR 64.9 48 54% 29.89 0.0
03 14:35 NW 7 10.00 Fair CLR 64.9 46.9 52% 29.89 0.0
03 14:15 N 8 10.00 Fair CLR 63.9 46.8 54% 29.89 0.0
03 13:55 N 9 10.00 Fair CLR 64.6 47.3 54% 29.9 0.0
03 13:35 N 12 10.00 Fair CLR 64.6 47.5 54% 29.89 0.0
03 13:15 N 10 10.00 Fair CLR 63.3 47.7 57% 29.9 0.0
03 12:55 N 10 10.00 Fair CLR 62.6 47.8 59% 29.9 0.0
03 12:40 N 9 10.00 Fair CLR 62.8 47.5 58% 29.9 0.0
03 12:15 N 5 10.00 Fair CLR 61.7 46.2 57% 29.9 0.0
03 11:55 N 8 10.00 Fair CLR 60.8 46.9 60% 29.9 0.0
03 11:40 NW 12 10.00 Fair CLR 59.4 46.6 63% 29.91 0.0
03 11:15 N 8 10.00 Fair CLR 57.4 47.1 69% 29.91 0.0
03 10:35 N 6 10.00 Fair CLR 55.6 47.1 73% 29.91 0.0
03 10:15 N 7 10.00 Fair CLR 55.6 46.9 73% 29.9 0.0
03 09:55 N 8 10.00 Fair CLR 54.3 46.6 75% 29.91 0.0
03 09:35 NW 9 10.00 Fair CLR 52.7 46.4 79% 29.9 0.0
03 09:15 N 6 10.00 Fair CLR 52.2 46.2 80% 29.9 0.0
03 08:55 N 7 10.00 Fair CLR 51.8 46.4 82% 29.9 0.0
03 08:35 N 7 10.00 Fair CLR 51.3 45.9 82% 29.89 0.0
03 08:15 N 9 10.00 Fair CLR 50.9 46.4 85% 29.89 0.0
03 07:55 N 8 10.00 Fair CLR 50.2 46.6 88% 29.88 0.0
03 07:35 N 9 10.00 Fair CLR 50 46.4 88% 47 29.87 0.0
03 07:15 N 12 10.00 Fair CLR 50 46 86% 46 29.86 0.0
03 06:55 N 12 10.00 Fair CLR 49.1 46.4 90% 45 29.85 0.0
03 06:35 N 10 10.00 Fair CLR 49.6 45.7 86% 46 29.84 0.0
03 06:15 N 9 10.00 Fair CLR 49.6 45.5 86% 46 29.83 0.0
03 05:55 N 9 10.00 Fair CLR 50 45.1 83% 47 29.83 0.0
03 05:35 N 9 10.00 Fair CLR 50.2 45 82% 29.83 0.0
03 05:15 NW 7 10.00 Fair CLR 50 45.5 85% 48 29.82 0.0
03 04:55 NW 8 10.00 Fair CLR 50 45.9 56.5 50 86% 47 29.82 0.0
03 04:35 NW 6 10.00 Fair CLR 50.5 45.7 84% 29.83 0.0
03 04:15 NW 5 10.00 Fair CLR 50.5 45.7 84% 29.83 0.0
03 03:55 N 5 10.00 Fair CLR 50.9 45.5 82% 29.83 0.0
03 03:35 N 6 10.00 Fair CLR 51.6 45.9 81% 29.82 0.0
03 03:15 NW 6 10.00 Fair CLR 51.8 46.8 83% 29.82 0.0
03 02:55 N 3 10.00 Fair CLR 51.6 47.5 86% 29.82 0.0
03 02:35 NW 5 10.00 Fair CLR 51.8 47.3 85% 29.83 0.0
03 02:15 N 3 10.00 Fair CLR 52 47.5 85% 29.83 0.0
03 01:55 N 5 10.00 Fair CLR 52.2 47.5 84% 29.83 0.0
03 01:35 N 6 10.00 Fair CLR 52.5 48.2 85% 29.84 0.0
03 01:15 N 6 10.00 Fair CLR 52.9 48.2 84% 29.84 0.0
03 00:55 N 5 10.00 Fair CLR 53.2 48.6 84% 29.85 0.0
03 00:35 N 7 10.00 Fair CLR 54.5 48.4 80% 29.85 0.0
03 00:15 NW 8 10.00 Fair CLR 54.7 48.6 80% 29.85 0.0
02 23:55 N 7 10.00 Fair CLR 54.1 48.7 82% 29.85 0.0
02 23:35 N 6 10.00 Fair CLR 54.9 49.1 81% 29.86 0.0
02 23:15 N 8 10.00 Fair CLR 55.9 49.3 78% 29.87 0.0
02 22:55 N 8 10.00 Fair CLR 56.5 49.6 70.5 56.5 78% 29.87 0.0
02 22:35 N 9 10.00 Fair CLR 56.7 49.6 77% 29.87 0.0
02 22:15 N 9 10.00 Fair CLR 57.2 49.5 76% 29.87 0.0
02 21:55 N 9 10.00 Fair CLR 58.1 50.4 76% 29.86 0.0
02 21:35 N 9 10.00 Fair CLR 59.4 51.4 75% 29.85 0.0
02 21:15 NW 10 10.00 Fair CLR 59.9 52 75% 29.85 0.0
02 20:55 N 8 10.00 Fair CLR 61.7 52.3 72% 29.85 0.0
02 20:35 N 9 10.00 Fair CLR 62.4 53.1 72% 29.84 0.0
02 20:15 N 9 10.00 Fair CLR 63.1 53.2 70% 29.83 0.0
02 19:55 N 9 10.00 Fair CLR 63.5 53.6 70% 29.84 0.0
02 19:35 NW 10 10.00 Fair CLR 64.4 52.9 66% 29.83 0.0
02 19:15 N 9 10.00 Fair CLR 64.8 52.2 64% 29.83 0.0
02 18:55 N 12 G 17 10.00 Fair CLR 65.5 52 62% 29.83 0.0
02 18:35 NW 10 10.00 Fair CLR 66.6 51.8 59% 29.83 0.0
02 18:15 NW 10 10.00 Fair CLR 67.3 52.2 59% 29.83 0.0
02 17:55 NW 12 10.00 Fair CLR 67.3 52.3 59% 29.83 0.0
02 17:35 N 10 10.00 Fair CLR 67.8 52.2 57% 29.84 0.0
02 17:15 N 9 10.00 Fair CLR 68.9 52.5 56% 29.84 0.0
02 16:55 N 9 10.00 Fair CLR 71.1 53.2 76.3 70 53% 29.85 0.0
02 16:35 N 9 10.00 Fair CLR 72.5 53.2 51% 29.85 0.0
02 16:15 N 9 10.00 Fair CLR 73.4 54.7 52% 29.85 0.0
02 15:55 N 10 10.00 Fair CLR 74.3 54.9 51% 29.86 0.0
02 15:35 N 8 10.00 Fair CLR 74.3 55 51% 29.86 0.0
02 15:15 N 10 10.00 Fair CLR 74.7 54.5 50% 29.87 0.0
02 14:55 N 10 10.00 Fair CLR 74.3 55.4 52% 29.87 0.0
02 14:35 N 9 10.00 Fair CLR 73.8 55.6 53% 29.88 0.0
02 14:15 N 8 10.00 Fair CLR 73.8 55.4 53% 29.88 0.0
02 13:55 N 9 10.00 Fair CLR 72.9 55 54% 29.89 0.0
02 13:35 NW 12 10.00 Fair CLR 72.3 55 55% 29.9 0.0
02 13:15 N 10 10.00 Fair CLR 71.1 55.4 58% 29.9 0.0
02 12:55 N 10 10.00 Fair CLR 70.9 55.2 58% 29.9 0.0
02 12:35 N 10 10.00 Fair CLR 70.7 55.4 59% 29.9 0.0
02 12:15 N 8 10.00 Fair CLR 70.2 54.5 58% 29.9 0.0
02 11:55 NW 12 10.00 Fair CLR 74.5 55.6 52% 29.9 0.0
02 11:35 SW 3 7.00 Fair CLR 76.1 55 48% 78 29.9 0.0
02 11:15 W 5 10.00 Fair CLR 75 54.5 49% 78 29.9 0.0
02 10:55 Calm 10.00 Fair CLR 71.8 53.8 73.4 52.7 53% 29.9 0.0
02 10:35 Calm 10.00 Fair CLR 71.1 53.2 53% 29.9 0.0
02 10:15 Calm 10.00 Fair CLR 71.6 55.8 58% 29.9 0.0
02 09:55 Calm 10.00 Fair CLR 69.6 54.3 58% 29.9 0.0
02 09:35 Calm 10.00 Fair CLR 67.3 53.2 61% 29.9 0.0
02 09:15 NW 3 10.00 Fair CLR 65.3 51.6 61% 29.9 0.0
02 08:55 Calm 10.00 Fair CLR 63.7 52.2 66% 29.9 0.0
02 08:35 Calm 10.00 Fair CLR 61.7 52.5 72% 29.9 0.0
02 08:15 Calm 10.00 Fair CLR 59.4 54 82% 29.9 0.0
02 07:55 Calm 10.00 Fair CLR 57 53.1 87% 29.9 0.0
02 07:35 Calm 10.00 Fair CLR 57.6 53.2 86% 29.89 0.0
02 07:15 Calm 10.00 Fair CLR 55.2 51.4 87% 29.88 0.0
02 06:55 E 3 10.00 Fair CLR 54.7 52.9 94% 29.87 0.0
02 06:35 Calm 10.00 Fair CLR 52.9 50.2 91% 29.87 0.0
02 06:15 S 3 10.00 Fair CLR 53.6 52.7 97% 29.87 0.0
02 06:00 S 3 10.00 Fair CLR 54.3 52.9 95% 29.87 0.0
02 05:35 Calm 10.00 Fair CLR 54.7 52.7 93% 29.87 0.0
02 05:15 SE 3 10.00 Fair CLR 53.6 53.6 100% 29.87 0.0
02 04:55 Calm 10.00 Fair CLR 54.7 53.1 63.1 53.6 94% 29.87 0.0
02 04:35 Calm 10.00 Fair CLR 54.5 48.9 82% 29.88 0.0
02 04:15 Calm 10.00 Fair CLR 55 50.5 85% 29.88 0.0
02 03:55 SW 5 10.00 Fair CLR 54.9 50.4 85% 29.89 0.0
02 03:35 S 3 10.00 Fair CLR 55.4 52.2 89% 29.89 0.0
02 03:15 Calm 10.00 Fair CLR 55.6 53.1 91% 29.89 0.0
02 02:55 E 3 10.00 Fair CLR 56.5 53.2 89% 29.89 0.0
02 02:35 E 3 10.00 Fair CLR 55.8 51.6 86% 29.9 0.0
02 02:15 E 3 10.00 Fair CLR 55.6 54.5 96% 29.9 0.0
02 01:55 Calm 10.00 Fair CLR 56.8 54 90% 29.91 0.0
02 01:35 Calm 10.00 Fair CLR 58.3 54.5 87% 29.91 0.0
02 01:15 Calm 10.00 Fair CLR 58.5 54 85% 29.91 0.0
02 00:55 Calm 10.00 Fair CLR 58.3 54.5 87% 29.92 0.0
02 00:35 Calm 10.00 Fair CLR 59 54.5 85% 29.92 0.0
02 00:15 Calm 10.00 Fair CLR 61.2 55.2 81% 29.92 0.0
01 23:55 Calm 10.00 Fair CLR 61.2 55 80% 29.92 0.0
01 23:35 Calm 10.00 Fair CLR 62.1 55.2 78% 29.92 0.0
01 23:15 Calm 10.00 Fair CLR 62.6 55.4 77% 29.92 0.0
01 22:55 Calm 10.00 Fair CLR 63.1 55.6 77.7 63.1 77% 29.92 0.0
01 22:35 Calm 10.00 Fair CLR 63.7 55.8 76% 29.92 0.0
01 22:15 N 3 10.00 Fair CLR 64.8 55.8 73% 29.92 0.0
01 21:55 N 3 10.00 Fair CLR 66.4 56.7 71% 29.92 0.0
01 21:35 N 3 10.00 Fair CLR 66.7 56.5 70% 29.91 0.0
01 21:15 Calm 10.00 Fair CLR 67.1 56.3 68% 29.91 0.0
01 20:55 Calm 10.00 Fair CLR 67.6 55.9 66% 29.9 0.0
01 20:35 NW 7 10.00 Fair CLR 71.1 55.9 59% 29.89 0.0
01 20:15 N 5 10.00 Fair CLR 71.1 55.2 57% 29.89 0.0
01 19:55 N 5 10.00 Fair CLR 72 54.9 55% 29.88 0.0
01 19:35 NW 6 10.00 Fair CLR 73.6 54.5 51% 29.88 0.0
01 19:15 NW 5 10.00 Fair CLR 75.2 54.5 49% 78 29.88 0.0
01 18:55 NW 5 10.00 Fair CLR 75.6 54.7 48% 78 29.88 0.0
01 18:35 NW 5 10.00 Fair CLR 75.7 53.6 46% 78 29.89 0.0
01 18:15 NW 7 10.00 Fair CLR 75.9 53.8 46% 78 29.89 0.0
Date Time (pdt) Wind (mph) Vis. (mi.) Weather Sky Cond. Air Dwpt Max. Min. Relative Humidity Wind Chill (°F) Heat Index (°F) altimeter (in) sea level (mb) 1 hr 3 hr 6 hr
6 hour
Temperature (ºF) Pressure Precipitation (in)